createdAt,value
2019-02-16T00:01:12.174Z,4.10
2019-02-16T00:03:41.147Z,3.42
2019-02-16T00:06:10.098Z,3.83
2019-02-16T00:08:39.055Z,6.40
2019-02-16T00:11:07.982Z,3.22
2019-02-16T00:13:36.950Z,4.53
2019-02-16T00:16:05.873Z,5.12
2019-02-16T00:18:34.836Z,3.17
2019-02-16T00:21:04.458Z,2.80
2019-02-16T00:23:33.600Z,4.00
2019-02-16T00:26:02.533Z,5.08
2019-02-16T00:28:31.493Z,3.33
2019-02-16T00:31:00.458Z,3.50
2019-02-16T00:33:29.403Z,2.98
2019-02-16T00:35:58.329Z,2.50
2019-02-16T00:38:27.260Z,3.25
2019-02-16T00:40:56.194Z,2.70
2019-02-16T00:43:25.123Z,4.17
2019-02-16T00:45:54.060Z,3.05
2019-02-16T00:48:22.994Z,2.85
2019-02-16T00:50:51.993Z,4.75
2019-02-16T00:53:20.924Z,3.35
2019-02-16T00:55:49.870Z,2.72
2019-02-16T00:58:18.804Z,5.00
2019-02-16T01:00:47.790Z,5.35
2019-02-16T01:03:16.698Z,5.60
2019-02-16T01:05:45.608Z,5.22
2019-02-16T01:08:14.572Z,2.60
2019-02-16T01:10:43.657Z,4.28
2019-02-16T01:13:12.634Z,3.35
2019-02-16T01:15:41.583Z,2.67
2019-02-16T01:18:10.576Z,3.47
2019-02-16T01:20:39.498Z,3.47
2019-02-16T01:23:08.443Z,2.85
2019-02-16T01:25:37.374Z,3.58
2019-02-16T01:28:06.314Z,2.92
2019-02-16T01:30:35.297Z,4.35
2019-02-16T01:33:04.237Z,3.15
2019-02-16T01:35:33.200Z,3.25
2019-02-16T01:38:02.176Z,3.30
2019-02-16T01:40:31.084Z,3.25
2019-02-16T01:43:00.032Z,3.50
2019-02-16T01:45:29.020Z,2.55
2019-02-16T01:47:57.950Z,2.95
2019-02-16T01:50:26.884Z,4.10
2019-02-16T01:52:55.845Z,3.05
2019-02-16T01:55:24.805Z,3.10
2019-02-16T01:57:53.769Z,3.87
2019-02-16T02:00:22.662Z,3.20
2019-02-16T02:02:51.628Z,4.55
2019-02-16T02:05:20.619Z,3.83
2019-02-16T02:07:49.561Z,2.87
2019-02-16T02:10:18.509Z,2.92
2019-02-16T02:12:47.474Z,2.90
2019-02-16T02:15:16.451Z,3.47
2019-02-16T02:17:45.422Z,3.37
2019-02-16T02:20:14.404Z,2.60
2019-02-16T02:22:43.340Z,3.70
2019-02-16T02:25:12.314Z,5.72
2019-02-16T02:27:41.317Z,5.15
2019-02-16T02:30:10.751Z,3.60
2019-02-16T02:32:39.713Z,3.83
2019-02-16T02:35:08.722Z,4.03
2019-02-16T02:37:37.664Z,4.28
2019-02-16T02:40:06.678Z,6.08
2019-02-16T02:42:35.634Z,4.20
2019-02-16T02:45:04.906Z,4.28
2019-02-16T02:47:33.859Z,5.40
2019-02-16T02:50:02.842Z,3.72
2019-02-16T02:52:31.802Z,2.98
2019-02-16T02:55:00.828Z,4.45
2019-02-16T02:57:29.767Z,3.67
2019-02-16T02:59:58.753Z,3.17
2019-02-16T03:02:27.735Z,3.08
2019-02-16T03:04:56.713Z,3.08
2019-02-16T03:07:25.659Z,3.37
2019-02-16T03:09:54.645Z,4.22
2019-02-16T03:12:23.603Z,2.60
2019-02-16T03:14:52.590Z,3.22
2019-02-16T03:17:21.530Z,3.40
2019-02-16T03:19:50.489Z,3.90
2019-02-16T03:22:19.436Z,2.70
2019-02-16T03:24:48.337Z,2.55
2019-02-16T03:28:01.791Z,3.42
2019-02-16T03:31:07.294Z,3.15
2019-02-16T03:33:47.716Z,4.25
2019-02-16T03:37:03.426Z,2.70
2019-02-16T03:39:36.245Z,3.58
2019-02-16T03:42:05.253Z,3.98
2019-02-16T03:44:34.226Z,3.58
2019-02-16T03:47:03.193Z,3.55
2019-02-16T03:49:32.143Z,4.83
2019-02-16T03:52:01.084Z,4.00
2019-02-16T03:54:30.006Z,4.05
2019-02-16T03:56:58.966Z,3.30
2019-02-16T03:59:27.855Z,3.75
2019-02-16T04:01:56.772Z,2.60
2019-02-16T04:04:25.771Z,4.37
2019-02-16T04:06:54.731Z,4.47
2019-02-16T04:09:23.582Z,2.90
2019-02-16T04:11:52.531Z,3.27
2019-02-16T04:14:21.548Z,2.70
2019-02-16T04:16:50.472Z,3.17
2019-02-16T04:19:19.431Z,3.72
2019-02-16T04:21:48.364Z,2.85
2019-02-16T04:24:17.456Z,5.35
2019-02-16T04:26:46.395Z,4.60
2019-02-16T04:29:15.385Z,2.80
2019-02-16T04:31:44.320Z,2.40
2019-02-16T04:34:13.282Z,4.50
2019-02-16T04:36:42.219Z,3.47
2019-02-16T04:39:11.298Z,2.83
2019-02-16T04:41:40.221Z,7.67
2019-02-16T04:44:09.179Z,3.52
2019-02-16T04:46:38.134Z,3.77
2019-02-16T04:49:07.050Z,3.15
2019-02-16T04:51:35.991Z,2.70
2019-02-16T04:54:04.930Z,3.12
2019-02-16T04:56:33.905Z,2.65
2019-02-16T04:59:02.847Z,3.83
2019-02-16T05:01:31.793Z,6.08
2019-02-16T05:04:00.739Z,4.20
2019-02-16T05:06:29.683Z,2.25
2019-02-16T05:08:58.671Z,2.60
2019-02-16T05:11:27.611Z,3.55
2019-02-16T05:13:56.557Z,3.17
2019-02-16T05:16:25.500Z,2.77
2019-02-16T05:18:54.458Z,4.22
2019-02-16T05:21:23.387Z,2.10
2019-02-16T05:23:52.350Z,4.58
2019-02-16T05:26:21.179Z,6.20
2019-02-16T05:28:50.134Z,3.60
2019-02-16T05:31:19.064Z,3.70
2019-02-16T05:33:48.096Z,2.70
2019-02-16T05:36:16.978Z,3.65
2019-02-16T05:38:45.988Z,3.02
2019-02-16T05:41:14.918Z,5.25
2019-02-16T05:43:43.889Z,3.98
2019-02-16T05:46:12.862Z,3.40
2019-02-16T05:48:41.769Z,3.20
2019-02-16T05:51:10.725Z,4.03
2019-02-16T05:53:39.650Z,3.15
2019-02-16T05:56:08.584Z,3.00
2019-02-16T05:58:37.502Z,4.78
2019-02-16T06:01:06.440Z,4.20
2019-02-16T06:03:35.384Z,3.45
2019-02-16T06:06:04.301Z,4.28
2019-02-16T06:08:33.268Z,4.87
2019-02-16T06:11:03.197Z,4.30
2019-02-16T06:13:32.497Z,3.85
2019-02-16T06:16:01.425Z,3.98
2019-02-16T06:18:30.367Z,6.17
2019-02-16T06:20:59.289Z,3.47
2019-02-16T06:23:28.289Z,3.10
2019-02-16T06:25:57.216Z,5.53
2019-02-16T06:28:26.184Z,4.47
2019-02-16T06:30:55.102Z,3.77
2019-02-16T06:33:24.074Z,3.40
2019-02-16T06:36:00.277Z,2.58
2019-02-16T06:38:29.239Z,4.45
2019-02-16T06:40:58.195Z,2.40
2019-02-16T06:43:27.126Z,7.05
2019-02-16T06:45:56.080Z,4.90
2019-02-16T06:48:25.029Z,6.55
2019-02-16T06:50:53.926Z,3.08
2019-02-16T06:53:22.849Z,3.35
2019-02-16T06:55:58.832Z,2.62
2019-02-16T06:58:27.780Z,2.98
2019-02-16T07:00:56.729Z,3.12
2019-02-16T07:03:25.741Z,4.90
2019-02-16T07:05:54.695Z,6.15
2019-02-16T07:08:23.637Z,5.62
2019-02-16T07:10:52.568Z,8.98
2019-02-16T07:13:21.519Z,7.25
2019-02-16T07:16:07.953Z,4.62
2019-02-16T07:19:04.949Z,8.48
2019-02-16T07:21:33.875Z,6.03
2019-02-16T07:24:02.843Z,6.80
2019-02-16T07:26:31.779Z,6.92
2019-02-16T07:29:00.738Z,8.85
2019-02-16T07:31:29.677Z,3.52
2019-02-16T07:33:58.636Z,7.35
2019-02-16T07:36:27.601Z,2.50
2019-02-16T07:38:56.554Z,4.33
2019-02-16T07:41:25.540Z,6.33
2019-02-16T07:44:22.325Z,4.95
2019-02-16T07:47:12.974Z,7.17
2019-02-16T07:49:52.958Z,6.28
2019-02-16T07:52:39.620Z,7.10
2019-02-16T07:55:26.117Z,8.93
2019-02-16T07:58:03.995Z,7.83
2019-02-16T08:00:44.473Z,10.00
2019-02-16T08:03:41.440Z,6.28
2019-02-16T08:06:38.558Z,8.38
2019-02-16T08:09:29.211Z,8.93
2019-02-16T08:12:26.318Z,7.92
2019-02-16T08:15:09.637Z,7.55
2019-02-16T08:20:37.846Z,7.80
2019-02-16T08:23:25.785Z,7.03
2019-02-16T08:26:02.274Z,10.82
2019-02-16T08:28:48.961Z,8.83
2019-02-16T08:31:26.842Z,6.72
2019-02-16T08:34:15.833Z,7.62
2019-02-16T08:37:06.734Z,6.00
2019-02-16T08:39:54.633Z,7.12
2019-02-16T08:42:52.035Z,9.93
2019-02-16T08:45:39.928Z,57.00
2019-02-16T08:48:24.664Z,27.77
2019-02-16T08:51:11.003Z,63.75
2019-02-16T08:53:56.580Z,34.65
2019-02-16T08:56:34.685Z,23.07
2019-02-16T08:59:21.253Z,12.50
2019-02-16T09:01:57.757Z,17.02
2019-02-16T09:04:35.289Z,10.65
2019-02-16T09:07:32.183Z,10.75
2019-02-16T09:10:38.594Z,6.97
2019-02-16T09:13:25.077Z,7.80
2019-02-16T09:16:14.336Z,13.03
2019-02-16T09:18:57.119Z,8.43
2019-02-16T09:21:53.957Z,8.48
2019-02-16T09:24:40.438Z,10.88
2019-02-16T09:27:46.660Z,7.70
2019-02-16T09:30:46.743Z,10.00
2019-02-16T09:33:46.422Z,10.18
2019-02-16T09:36:31.571Z,8.18
2019-02-16T09:39:22.885Z,7.50
2019-02-16T09:41:57.341Z,9.50
2019-02-16T09:44:48.268Z,8.83
2019-02-16T09:47:36.176Z,7.20
2019-02-16T09:50:20.823Z,6.67
2019-02-16T09:53:17.746Z,6.40
2019-02-16T09:55:54.900Z,5.80
2019-02-16T09:58:48.727Z,5.75
2019-02-16T10:01:39.782Z,6.25
2019-02-16T10:04:14.137Z,8.75
2019-02-16T10:07:11.303Z,8.13
2019-02-16T10:10:08.390Z,6.75
2019-02-16T10:12:56.308Z,7.90
2019-02-16T10:15:43.054Z,9.58
2019-02-16T10:18:37.130Z,8.05
2019-02-16T10:21:19.093Z,10.23
2019-02-16T10:24:05.730Z,9.65
2019-02-16T10:26:50.804Z,9.98
2019-02-16T10:29:41.498Z,8.58
2019-02-16T10:32:24.332Z,9.40
2019-02-16T10:35:03.333Z,8.45
2019-02-16T10:37:54.043Z,7.15
2019-02-16T10:41:01.504Z,6.67
2019-02-16T10:43:55.513Z,7.62
2019-02-16T10:46:43.460Z,6.72
2019-02-16T10:49:24.716Z,7.05
2019-02-16T10:52:02.485Z,8.40
2019-02-16T10:54:59.547Z,8.80
2019-02-16T10:57:53.507Z,8.80
2019-02-16T11:00:35.348Z,8.38
2019-02-16T11:03:23.142Z,8.13
2019-02-16T11:06:11.650Z,7.60
2019-02-16T11:08:51.158Z,7.92
2019-02-16T11:11:39.042Z,8.85
2019-02-16T11:14:27.052Z,8.50
2019-02-16T11:17:13.766Z,7.17
2019-02-16T11:19:57.303Z,8.68
2019-02-16T11:22:46.386Z,6.15
2019-02-16T11:25:32.971Z,5.85
2019-02-16T11:28:26.766Z,7.35
2019-02-16T11:31:11.415Z,6.65
2019-02-16T11:33:56.341Z,6.20
2019-02-16T11:36:40.927Z,5.60
2019-02-16T11:39:31.711Z,8.58
2019-02-16T11:42:06.298Z,6.80
2019-02-16T11:44:50.057Z,6.10
2019-02-16T11:47:50.171Z,6.08
2019-02-16T11:50:29.567Z,8.93
2019-02-16T11:53:23.801Z,7.10
2019-02-16T11:56:04.937Z,6.15
2019-02-16T11:58:51.655Z,7.58
2019-02-16T12:01:37.407Z,6.80
2019-02-16T12:04:17.225Z,8.30
2019-02-16T12:07:08.205Z,6.62
2019-02-16T12:09:53.397Z,7.20
2019-02-16T12:12:34.842Z,7.83
2019-02-16T12:15:28.980Z,6.15
2019-02-16T12:18:19.738Z,7.45
2019-02-16T12:21:13.628Z,7.53
2019-02-16T12:24:04.420Z,8.23
2019-02-16T12:26:45.143Z,7.53
2019-02-16T12:29:30.634Z,7.45
2019-02-16T12:32:15.022Z,6.92
2019-02-16T12:34:53.344Z,6.87
2019-02-16T12:37:40.318Z,7.25
2019-02-16T12:40:34.213Z,6.30
2019-02-16T12:43:20.980Z,9.28
2019-02-16T12:46:20.918Z,7.25
2019-02-16T12:49:12.574Z,11.05
2019-02-16T12:52:03.325Z,8.83
2019-02-16T12:54:49.864Z,8.58
2019-02-16T12:57:25.114Z,5.30
2019-02-16T13:00:22.277Z,7.25
2019-02-16T13:03:22.037Z,6.15
2019-02-16T13:06:25.173Z,6.28
2019-02-16T13:09:12.722Z,5.40
2019-02-16T13:12:02.144Z,6.42
2019-02-16T13:14:53.047Z,6.67
2019-02-16T13:17:49.965Z,5.08
2019-02-16T13:20:39.688Z,6.75
2019-02-16T13:23:27.593Z,4.72
2019-02-16T13:26:08.592Z,4.78
2019-02-16T13:29:02.863Z,5.17
2019-02-16T13:31:41.907Z,5.83
2019-02-16T13:34:19.928Z,6.35
2019-02-16T13:37:06.226Z,6.12
2019-02-16T13:40:00.302Z,6.20
2019-02-16T13:42:48.253Z,4.20
2019-02-16T13:45:23.328Z,5.78
2019-02-16T13:48:11.487Z,4.70
2019-02-16T13:51:02.498Z,5.80
2019-02-16T13:53:53.465Z,7.72
2019-02-16T13:56:37.455Z,7.47
2019-02-16T13:59:25.435Z,6.50
2019-02-16T14:02:16.876Z,8.28
2019-02-16T14:05:09.891Z,6.05
2019-02-16T14:08:09.853Z,6.58
2019-02-16T14:11:13.017Z,6.67
2019-02-16T14:14:01.061Z,11.22
2019-02-16T14:16:45.603Z,7.17
2019-02-16T14:19:14.892Z,7.85
2019-02-16T14:21:44.288Z,10.08
2019-02-16T14:24:13.505Z,7.75
2019-02-16T14:26:42.770Z,7.47
2019-02-16T14:29:11.866Z,9.40
2019-02-16T14:31:41.026Z,9.30
2019-02-16T14:34:10.200Z,9.55
2019-02-16T14:36:39.225Z,7.35
2019-02-16T14:39:28.298Z,8.48
2019-02-16T14:41:57.298Z,10.98
2019-02-16T14:44:26.341Z,9.25
2019-02-16T14:46:55.904Z,7.53
2019-02-16T14:49:25.259Z,8.13
2019-02-16T14:51:54.301Z,13.08
2019-02-16T14:54:23.192Z,9.53
2019-02-16T14:56:52.155Z,9.65
2019-02-16T14:59:21.069Z,10.08
2019-02-16T15:01:49.929Z,8.45
2019-02-16T15:04:18.887Z,8.45
2019-02-16T15:06:47.753Z,7.10
2019-02-16T15:09:16.754Z,10.25
2019-02-16T15:11:45.579Z,7.17
2019-02-16T15:14:14.536Z,6.45
2019-02-16T15:16:43.657Z,6.53
2019-02-16T15:19:13.195Z,8.90
2019-02-16T15:21:42.142Z,6.70
2019-02-16T15:24:11.032Z,8.73
2019-02-16T15:26:40.159Z,9.60
2019-02-16T15:29:09.125Z,6.92
2019-02-16T15:31:38.027Z,8.78
2019-02-16T15:34:07.007Z,6.83
2019-02-16T15:36:35.920Z,8.45
2019-02-16T15:39:05.901Z,7.67
2019-02-16T15:41:34.736Z,10.88
2019-02-16T15:44:03.588Z,8.10
2019-02-16T15:46:32.415Z,6.47
2019-02-16T15:49:01.246Z,10.28
2019-02-16T15:51:30.080Z,5.00
2019-02-16T15:53:59.044Z,9.05
2019-02-16T15:56:27.958Z,16.05
2019-02-16T15:58:56.930Z,8.43
2019-02-16T16:01:25.776Z,6.30
2019-02-16T16:03:54.854Z,9.78
2019-02-16T16:06:23.762Z,7.17
2019-02-16T16:09:14.712Z,7.78
2019-02-16T16:11:48.405Z,5.45
2019-02-16T16:14:39.317Z,7.42
2019-02-16T16:17:39.422Z,14.73
2019-02-16T16:20:36.530Z,8.20
2019-02-16T16:23:20.435Z,10.53
2019-02-16T16:25:58.935Z,12.82
2019-02-16T16:28:43.786Z,13.85
2019-02-16T16:31:32.329Z,14.90
2019-02-16T16:34:32.625Z,8.90
2019-02-16T16:37:23.302Z,10.03
2019-02-16T16:40:10.578Z,7.65
2019-02-16T16:43:22.529Z,8.23
2019-02-16T16:46:10.459Z,8.80
2019-02-16T16:49:01.100Z,7.65
2019-02-16T16:51:51.809Z,8.70
2019-02-16T16:54:42.405Z,6.80
2019-02-16T16:57:39.373Z,7.42
2019-02-16T17:00:26.061Z,7.30
2019-02-16T17:03:17.591Z,5.85
2019-02-16T17:05:59.458Z,6.45
2019-02-16T17:08:47.593Z,6.90
2019-02-16T17:11:35.952Z,7.17
2019-02-16T17:14:24.938Z,7.42
2019-02-16T17:17:11.231Z,5.22
2019-02-16T17:19:59.538Z,5.90
2019-02-16T17:22:46.120Z,8.63
2019-02-16T17:25:34.094Z,6.42
2019-02-16T17:28:25.104Z,6.20
2019-02-16T17:31:07.248Z,7.30
2019-02-16T17:34:01.172Z,9.43
2019-02-16T17:36:55.362Z,7.65
2019-02-16T17:39:37.313Z,11.38
2019-02-16T17:42:28.041Z,5.65
2019-02-16T17:45:10.341Z,6.25
2019-02-16T17:48:04.657Z,6.30
2019-02-16T17:50:55.513Z,5.92
2019-02-16T17:53:42.094Z,5.30
2019-02-16T17:56:16.187Z,4.78
2019-02-16T17:59:13.150Z,4.80
2019-02-16T18:02:10.356Z,9.98
2019-02-16T18:05:04.065Z,5.33
2019-02-16T18:07:57.783Z,6.85
2019-02-16T18:11:03.915Z,6.22
2019-02-16T18:13:46.210Z,8.23
2019-02-16T18:16:25.000Z,7.28
2019-02-16T18:19:08.244Z,7.20
2019-02-16T18:24:36.532Z,6.55
2019-02-16T18:27:42.886Z,6.30
2019-02-16T18:30:29.530Z,5.80
2019-02-16T18:33:16.469Z,6.33
2019-02-16T18:36:04.356Z,7.67
2019-02-16T18:38:55.082Z,4.85
2019-02-16T18:42:01.077Z,7.15
2019-02-16T18:45:01.113Z,5.20
2019-02-16T18:47:43.864Z,5.03
2019-02-16T18:50:31.790Z,8.20
2019-02-16T18:53:23.262Z,7.17
2019-02-16T18:56:14.235Z,6.50
2019-02-16T18:58:52.707Z,6.37
2019-02-16T19:01:41.593Z,6.72
2019-02-16T19:04:35.850Z,7.03
2019-02-16T19:07:22.265Z,5.12
2019-02-16T19:10:10.144Z,7.03
2019-02-16T19:12:57.582Z,6.05
2019-02-16T19:15:38.028Z,6.72
2019-02-16T19:18:18.052Z,5.87
2019-02-16T19:21:05.201Z,4.92
2019-02-16T19:23:51.185Z,8.25
2019-02-16T19:26:41.931Z,5.55
2019-02-16T19:29:32.527Z,7.12
2019-02-16T19:32:20.294Z,6.05
2019-02-16T19:35:06.914Z,4.58
2019-02-16T19:37:42.461Z,5.17
2019-02-16T19:40:32.163Z,6.25
2019-02-16T19:43:20.323Z,4.20
2019-02-16T19:46:03.400Z,4.83
2019-02-16T19:48:58.229Z,5.55
2019-02-16T19:51:37.623Z,5.75
2019-02-16T19:54:17.599Z,4.72
2019-02-16T19:56:53.540Z,4.60
2019-02-16T19:59:44.975Z,5.83
2019-02-16T20:02:30.731Z,4.35
2019-02-16T20:05:23.299Z,4.35
2019-02-16T20:08:14.811Z,5.15
2019-02-16T20:11:03.119Z,5.37
2019-02-16T20:13:51.247Z,5.25
2019-02-16T20:16:29.844Z,5.22
2019-02-16T20:19:17.481Z,5.15
2019-02-16T20:21:58.127Z,4.85
2019-02-16T20:24:55.780Z,5.35
2019-02-16T20:27:46.992Z,5.22
2019-02-16T20:30:31.122Z,6.20
2019-02-16T20:33:18.055Z,6.12
2019-02-16T20:36:05.390Z,4.67
2019-02-16T20:38:56.444Z,5.03
2019-02-16T20:41:39.276Z,4.78
2019-02-16T20:44:21.929Z,4.87
2019-02-16T20:47:02.023Z,6.20
2019-02-16T20:49:55.798Z,6.92
2019-02-16T20:52:49.967Z,5.92
2019-02-16T20:55:43.960Z,5.00
2019-02-16T20:58:32.115Z,6.28
2019-02-16T21:01:26.290Z,5.25
2019-02-16T21:04:12.896Z,7.70
2019-02-16T21:07:13.285Z,4.92
2019-02-16T21:09:54.873Z,5.47
2019-02-16T21:12:45.887Z,4.65
2019-02-16T21:15:25.735Z,4.70
2019-02-16T21:18:28.995Z,4.95
2019-02-16T21:21:12.236Z,8.28
2019-02-16T21:23:58.688Z,5.28
2019-02-16T21:26:46.575Z,5.85
2019-02-16T21:29:31.595Z,6.55
2019-02-16T21:32:18.169Z,6.17
2019-02-16T21:34:56.614Z,6.05
2019-02-16T21:37:59.725Z,7.05
2019-02-16T21:40:53.628Z,4.28
2019-02-16T21:43:39.624Z,5.97
2019-02-16T21:46:26.384Z,5.97
2019-02-16T21:49:13.576Z,5.75
2019-02-16T21:51:50.542Z,4.65
2019-02-16T21:54:26.211Z,5.80
2019-02-16T21:57:06.659Z,7.40
2019-02-16T21:59:54.594Z,6.12
2019-02-16T22:02:32.277Z,4.70
2019-02-16T22:05:10.877Z,6.15
2019-02-16T22:07:52.551Z,4.80
2019-02-16T22:10:41.187Z,6.75
2019-02-16T22:13:10.192Z,5.22
2019-02-16T22:15:39.531Z,5.05
2019-02-16T22:18:08.361Z,5.30
2019-02-16T22:20:37.195Z,4.80
2019-02-16T22:23:06.025Z,5.30
2019-02-16T22:25:34.856Z,7.17
2019-02-16T22:28:03.733Z,6.70
2019-02-16T22:30:32.657Z,11.05
2019-02-16T22:33:01.814Z,7.33
2019-02-16T22:35:30.629Z,8.05
2019-02-16T22:37:59.614Z,7.90
2019-02-16T22:40:28.492Z,9.75
2019-02-16T22:42:57.502Z,7.80
2019-02-16T22:45:26.413Z,10.53
2019-02-16T22:47:55.155Z,7.08
2019-02-16T22:50:24.058Z,15.13
2019-02-16T22:52:52.901Z,6.70
2019-02-16T22:55:21.926Z,6.17
2019-02-16T22:57:50.849Z,7.30
2019-02-16T23:00:37.377Z,9.95
2019-02-16T23:03:07.859Z,6.97
2019-02-16T23:05:36.741Z,5.97
2019-02-16T23:08:05.614Z,5.83
2019-02-16T23:10:34.449Z,7.50
2019-02-16T23:13:03.388Z,6.50
2019-02-16T23:15:32.284Z,5.72
2019-02-16T23:18:01.276Z,5.40
2019-02-16T23:20:30.179Z,7.65
2019-02-16T23:22:59.097Z,4.95
2019-02-16T23:25:27.997Z,6.45
2019-02-16T23:27:56.824Z,6.00
2019-02-16T23:30:25.775Z,6.47
2019-02-16T23:32:56.885Z,6.83
2019-02-16T23:35:25.136Z,9.33
2019-02-16T23:37:54.073Z,5.92
2019-02-16T23:40:22.934Z,5.78
2019-02-16T23:42:51.865Z,5.58
2019-02-16T23:45:20.628Z,5.78
2019-02-16T23:47:49.537Z,7.67
2019-02-16T23:50:18.404Z,5.95
2019-02-16T23:52:47.520Z,6.42
2019-02-16T23:55:16.382Z,5.50
2019-02-16T23:57:45.356Z,6.53
